Time;durP1;ratioP1;P1;durP2;ratioP2;P2;SDS_P1;SDS_P2;PMS_P1;PMS_P2;Temp;Humidity;BMP_temperature;BMP_pressure;BME280_temperature;BME280_humidity;BME280_pressure;Samples;Min_cycle;Max_cycle;Signal;HPM_P1;HPM_P2
2022/12/24 19:15:52;;;;;;;75.22;21.50;;;;;;;;;;5088745;27;86496;-68
2022/12/24 19:18:18;;;;;;;72.15;21.52;;;;;;;;;;5074254;27;88915;-69
2022/12/24 19:20:44;;;;;;;68.05;20.00;;;;;;;;;;5063229;27;89727;-70
2022/12/24 19:23:11;;;;;;;70.30;20.67;;;;;;;;;;5069460;27;89176;-68
2022/12/24 19:25:37;;;;;;;75.53;24.02;;;;;;;;;;5071800;27;91090;-68
2022/12/24 19:28:09;;;;;;;67.60;23.70;;;;;;;;;;5061427;27;89423;-69
2022/12/24 19:30:37;;;;;;;74.45;23.75;;;;;;;;;;5063267;27;88846;-68
2022/12/24 19:33:03;;;;;;;78.05;28.27;;;;;;;;;;5073035;27;90058;-69
2022/12/24 19:35:29;;;;;;;103.32;38.08;;;;;;;;;;5074302;27;89581;-68
2022/12/24 19:37:56;;;;;;;92.10;35.30;;;;;;;;;;5070881;27;91530;-69
2022/12/24 19:40:22;;;;;;;90.70;36.22;;;;;;;;;;5072098;27;89899;-69
2022/12/24 19:42:51;;;;;;;66.00;26.13;;;;;;;;;;5064357;27;88996;-69
2022/12/24 19:45:17;;;;;;;66.28;23.83;;;;;;;;;;5072681;27;90173;-69
2022/12/24 19:47:45;;;;;;;66.25;19.73;;;;;;;;;;5073624;27;89661;-68
2022/12/24 19:50:11;;;;;;;68.93;21.35;;;;;;;;;;5070852;27;88988;-69
2022/12/24 19:52:37;;;;;;;78.68;24.15;;;;;;;;;;5071773;27;90247;-69
2022/12/24 19:55:05;;;;;;;89.20;37.05;;;;;;;;;;5072820;27;89557;-68
2022/12/24 19:57:31;;;;;;;78.70;29.50;;;;;;;;;;5074573;27;89204;-69
2022/12/24 19:59:57;;;;;;;72.43;24.05;;;;;;;;;;5071470;27;89642;-69
2022/12/24 20:02:24;;;;;;;67.75;24.10;;;;;;;;;;5067397;27;89321;-69
2022/12/24 20:04:50;;;;;;;71.93;26.50;;;;;;;;;;5055799;27;90084;-69
2022/12/24 20:07:17;;;;;;;72.53;26.00;;;;;;;;;;5072601;27;89215;-69
2022/12/24 20:09:43;;;;;;;66.88;24.85;;;;;;;;;;5070407;27;88915;-70
2022/12/24 20:12:09;;;;;;;65.30;21.90;;;;;;;;;;5054643;27;90340;-69
2022/12/24 20:14:36;;;;;;;57.00;20.88;;;;;;;;;;5038787;27;89722;-69
2022/12/24 20:17:02;;;;;;;68.13;23.48;;;;;;;;;;5031626;27;89211;-69
2022/12/24 20:19:28;;;;;;;68.38;24.30;;;;;;;;;;5035515;27;90128;-68
2022/12/24 20:21:55;;;;;;;56.75;19.60;;;;;;;;;;5032580;27;89063;-69
2022/12/24 20:24:21;;;;;;;53.75;19.80;;;;;;;;;;5031579;28;91939;-69
2022/12/24 20:26:48;;;;;;;56.22;18.33;;;;;;;;;;5019485;28;90546;-68
2022/12/24 20:29:14;;;;;;;77.70;18.75;;;;;;;;;;5017879;28;89167;-68
2022/12/24 20:31:40;;;;;;;68.45;21.02;;;;;;;;;;5018152;28;89678;-69
2022/12/24 20:34:07;;;;;;;59.55;18.65;;;;;;;;;;5018860;28;90117;-68
2022/12/24 20:36:34;;;;;;;53.22;16.92;;;;;;;;;;5015157;28;89008;-69
2022/12/24 20:39:00;;;;;;;64.78;17.52;;;;;;;;;;5018965;28;90105;-69
2022/12/24 20:41:28;;;;;;;72.30;18.60;;;;;;;;;;5022235;28;89918;-69
2022/12/24 20:43:56;;;;;;;60.42;19.10;;;;;;;;;;5015944;28;90734;-69
2022/12/24 20:46:22;;;;;;;66.25;18.35;;;;;;;;;;5015350;28;90794;-68
2022/12/24 20:48:49;;;;;;;69.57;18.58;;;;;;;;;;5018693;28;89103;-69
2022/12/24 20:51:17;;;;;;;59.95;17.85;;;;;;;;;;5018668;28;90860;-69
2022/12/24 20:53:51;;;;;;;65.30;17.27;;;;;;;;;;5017840;28;90430;-69
2022/12/24 20:56:17;;;;;;;58.67;17.52;;;;;;;;;;5013819;28;89000;-69
2022/12/24 20:58:44;;;;;;;65.70;17.60;;;;;;;;;;5018370;28;90020;-68
2022/12/24 21:01:13;;;;;;;62.03;19.33;;;;;;;;;;5013730;28;89650;-69
2022/12/24 21:03:39;;;;;;;68.97;19.58;;;;;;;;;;5002860;28;88995;-69
2022/12/24 21:06:06;;;;;;;57.60;17.80;;;;;;;;;;5010462;28;89512;-69
2022/12/24 21:08:32;;;;;;;66.20;17.55;;;;;;;;;;5018114;28;89015;-69
2022/12/24 21:13:43;;;;;;;67.88;20.67;;;;;;;;;;5022736;27;89921;-68
2022/12/24 21:16:10;;;;;;;66.72;19.33;;;;;;;;;;5055436;27;89255;-69
2022/12/24 21:18:36;;;;;;;61.28;18.58;;;;;;;;;;5058211;27;90047;-69
2022/12/24 21:21:02;;;;;;;62.53;17.80;;;;;;;;;;5035698;28;89533;-69
2022/12/24 21:23:28;;;;;;;76.18;17.20;;;;;;;;;;5049424;27;89422;-69
2022/12/24 21:25:59;;;;;;;64.82;16.60;;;;;;;;;;5043366;27;89303;-69
2022/12/24 21:28:25;;;;;;;61.42;17.90;;;;;;;;;;5056624;27;88817;-69
2022/12/24 21:30:51;;;;;;;56.92;15.68;;;;;;;;;;5057220;27;90529;-70
2022/12/24 21:33:18;;;;;;;60.35;16.25;;;;;;;;;;5058060;27;89463;-69
2022/12/24 21:35:44;;;;;;;61.95;17.80;;;;;;;;;;5056136;27;89264;-69
2022/12/24 21:38:10;;;;;;;64.85;16.20;;;;;;;;;;5055330;27;90489;-69
2022/12/24 21:40:37;;;;;;;60.28;17.05;;;;;;;;;;5056927;27;90641;-69
2022/12/24 21:43:03;;;;;;;56.70;15.93;;;;;;;;;;5056287;27;89612;-68
2022/12/24 21:45:30;;;;;;;59.30;17.45;;;;;;;;;;5059478;27;89941;-69
2022/12/24 21:47:56;;;;;;;77.07;19.83;;;;;;;;;;5056634;27;88998;-69
2022/12/24 21:55:52;;;;;;;64.78;17.38;;;;;;;;;;5056904;27;89033;-69
2022/12/24 21:58:18;;;;;;;73.22;20.33;;;;;;;;;;5037289;27;92942;-69
2022/12/24 22:00:45;;;;;;;79.45;19.27;;;;;;;;;;5057765;27;89761;-68
2022/12/24 22:03:11;;;;;;;62.40;17.25;;;;;;;;;;5039910;27;89014;-69
2022/12/24 22:05:37;;;;;;;67.05;16.15;;;;;;;;;;5055056;27;91996;-68
2022/12/24 22:13:33;;;;;;;62.53;16.42;;;;;;;;;;5054458;27;89427;-69
2022/12/24 22:16:00;;;;;;;61.35;16.52;;;;;;;;;;5056188;27;89022;-69
2022/12/24 22:18:26;;;;;;;63.50;17.30;;;;;;;;;;5056386;27;90058;-69
2022/12/24 22:20:52;;;;;;;58.03;15.52;;;;;;;;;;5057205;27;89845;-69
2022/12/24 22:23:19;;;;;;;64.30;16.52;;;;;;;;;;5057193;27;89154;-69
2022/12/24 22:25:45;;;;;;;59.08;15.93;;;;;;;;;;5055862;27;90048;-69
2022/12/24 22:28:12;;;;;;;58.15;14.77;;;;;;;;;;5055664;27;89545;-69
2022/12/24 22:30:39;;;;;;;60.97;15.77;;;;;;;;;;5038544;27;89172;-69
2022/12/24 22:33:06;;;;;;;58.80;16.35;;;;;;;;;;5057110;27;89554;-69
2022/12/24 22:35:35;;;;;;;66.28;16.45;;;;;;;;;;5054686;27;88983;-68
2022/12/24 22:38:02;;;;;;;62.78;16.75;;;;;;;;;;5039176;27;93233;-69
2022/12/24 22:40:28;;;;;;;58.40;17.23;;;;;;;;;;5056792;27;89599;-69
2022/12/24 22:42:54;;;;;;;73.70;17.02;;;;;;;;;;5057259;27;89005;-69
2022/12/24 22:45:21;;;;;;;57.95;16.08;;;;;;;;;;5038007;27;90281;-69
2022/12/24 22:47:48;;;;;;;54.50;15.90;;;;;;;;;;5037383;27;89840;-69
2022/12/24 22:50:14;;;;;;;62.90;16.48;;;;;;;;;;5055802;27;89382;-69
2022/12/24 22:52:41;;;;;;;68.15;16.77;;;;;;;;;;5024253;28;90223;-68
2022/12/24 22:55:07;;;;;;;53.38;15.15;;;;;;;;;;5033959;27;89164;-69
2022/12/24 22:57:33;;;;;;;55.70;15.13;;;;;;;;;;5054283;27;91139;-69
2022/12/24 23:00:00;;;;;;;58.70;15.10;;;;;;;;;;5057128;27;89767;-69
2022/12/24 23:02:26;;;;;;;60.45;13.73;;;;;;;;;;5038808;27;89518;-69
2022/12/24 23:04:54;;;;;;;62.47;14.25;;;;;;;;;;5056194;27;89998;-69
2022/12/24 23:07:20;;;;;;;48.88;14.85;;;;;;;;;;5036244;27;89866;-69
2022/12/24 23:09:46;;;;;;;64.97;15.07;;;;;;;;;;5055530;27;89222;-70
2022/12/24 23:12:13;;;;;;;61.95;14.20;;;;;;;;;;5038555;27;90567;-69
2022/12/24 23:14:57;;;;;;;52.67;12.93;;;;;;;;;;5059944;27;89938;-69
2022/12/24 23:17:24;;;;;;;43.58;12.43;;;;;;;;;;5052526;27;90069;-69
2022/12/24 23:19:50;;;;;;;58.10;14.40;;;;;;;;;;5056671;27;89705;-69
2022/12/24 23:22:16;;;;;;;61.63;13.07;;;;;;;;;;5056071;27;88983;-69
2022/12/24 23:24:42;;;;;;;69.30;13.68;;;;;;;;;;5054420;27;90415;-69
2022/12/24 23:27:09;;;;;;;54.45;13.75;;;;;;;;;;5053876;27;90943;-68
2022/12/24 23:29:35;;;;;;;47.67;12.40;;;;;;;;;;5055844;27;89059;-69
2022/12/24 23:32:01;;;;;;;52.63;14.57;;;;;;;;;;5053673;27;90453;-69
2022/12/24 23:34:28;;;;;;;49.60;12.95;;;;;;;;;;5057658;27;89754;-68
2022/12/24 23:36:54;;;;;;;54.53;12.50;;;;;;;;;;5035427;27;90051;-69
2022/12/24 23:39:20;;;;;;;49.42;12.43;;;;;;;;;;5051741;27;89405;-69
2022/12/24 23:41:47;;;;;;;53.58;13.05;;;;;;;;;;5038002;27;89018;-68
2022/12/24 23:44:13;;;;;;;63.10;13.20;;;;;;;;;;5054112;27;89986;-69
2022/12/24 23:46:39;;;;;;;43.35;12.32;;;;;;;;;;5037188;27;89566;-68
2022/12/24 23:49:06;;;;;;;52.17;12.75;;;;;;;;;;5052653;27;90577;-69
2022/12/24 23:51:32;;;;;;;43.60;12.05;;;;;;;;;;5055530;27;88867;-68
2022/12/24 23:53:58;;;;;;;43.85;12.95;;;;;;;;;;5054357;27;89637;-68
2022/12/24 23:56:25;;;;;;;56.17;12.75;;;;;;;;;;5056770;27;92164;-68
2022/12/24 23:58:51;;;;;;;57.70;12.77;;;;;;;;;;5054136;27;89292;-68
